Briones, California
Current Conditions -  °F | °C
As of 4:05 AM on Monday 20 Oct 2014 (Local Time) from KCCR Reporting Station
Broken Clouds Broken Clouds  
Wind Chill: 62°   Ceiling: 2100
Heat Index: 62°   Visibility: 10mi
Dew Point: 55°   Wind: 3mph
Humidity: 78%   Direction: 200°SSW
Pressure: 29.9"   Gusts: NA
Location:  37.9788°N, 122.164°W
Report Text: KCCR 201105Z 20003KT 10SM BKN021 17/13 A2990 RMK AO2 T01670128
Loading
Personal Weather Stations






























Interactive Weather Map
Tropical Storm Tracking
New forecast layout! Learn more

10-Day Weather Forecast

Advertisements
Track Severe Weather on mobile